createdAt,value
2022-09-28T00:01:44.691Z,92.73
2022-09-28T00:04:16.857Z,92.93
2022-09-28T00:06:49.058Z,93.18
2022-09-28T00:09:21.256Z,93.05
2022-09-28T00:11:53.896Z,92.36
2022-09-28T00:14:28.622Z,91.17
2022-09-28T00:17:00.287Z,91.43
2022-09-28T00:19:32.197Z,92.99
2022-09-28T00:22:03.830Z,93.54
2022-09-28T00:24:35.967Z,92.32
2022-09-28T00:27:07.856Z,91.04
2022-09-28T00:29:42.517Z,91.04
2022-09-28T00:32:16.616Z,90.66
2022-09-28T00:34:49.547Z,91.26
2022-09-28T00:37:22.676Z,91.18
2022-09-28T00:39:54.658Z,91.18
2022-09-28T00:42:28.047Z,91.15
2022-09-28T00:45:03.029Z,91.60
2022-09-28T00:47:50.023Z,91.28
2022-09-28T00:50:28.687Z,91.44
2022-09-28T00:53:06.657Z,92.62
2022-09-28T00:55:43.687Z,92.58
2022-09-28T00:58:22.347Z,92.11
2022-09-28T01:00:59.231Z,93.40
2022-09-28T01:03:32.117Z,92.70
2022-09-28T01:06:06.942Z,93.70
2022-09-28T01:08:40.687Z,94.27
2022-09-28T01:11:12.716Z,93.17
2022-09-28T01:13:45.138Z,92.70
2022-09-28T01:16:28.806Z,93.13
2022-09-28T01:19:08.498Z,91.15
2022-09-28T01:21:51.541Z,91.51
2022-09-28T01:24:41.097Z,90.13
2022-09-28T01:27:23.798Z,90.09
2022-09-28T01:30:04.599Z,89.42
2022-09-28T01:32:45.776Z,90.05
2022-09-28T01:35:23.086Z,89.28
2022-09-28T01:38:00.218Z,89.74
2022-09-28T01:40:35.504Z,91.03
2022-09-28T01:43:14.118Z,91.55
2022-09-28T01:45:49.598Z,91.04
2022-09-28T01:48:28.067Z,90.69
2022-09-28T01:51:03.738Z,89.76
2022-09-28T01:53:41.117Z,89.88
2022-09-28T01:56:16.317Z,91.03
2022-09-28T01:58:56.438Z,91.52
2022-09-28T02:01:34.080Z,92.34
2022-09-28T02:04:11.887Z,92.25
2022-09-28T02:06:49.117Z,91.81
2022-09-28T02:09:31.703Z,90.87
2022-09-28T02:12:13.830Z,91.52
2022-09-28T02:14:50.977Z,91.56
2022-09-28T02:17:22.910Z,90.57
2022-09-28T02:19:54.978Z,91.53
2022-09-28T02:22:31.177Z,91.69
2022-09-28T02:25:10.129Z,92.61
2022-09-28T02:27:46.817Z,90.94
2022-09-28T02:30:21.628Z,91.37
2022-09-28T02:32:57.050Z,90.87
2022-09-28T02:35:29.267Z,91.44
2022-09-28T02:38:01.137Z,90.79
2022-09-28T02:40:38.113Z,91.90
2022-09-28T02:43:19.677Z,91.82
2022-09-28T02:46:05.105Z,92.42
2022-09-28T02:49:04.992Z,92.19
2022-09-28T02:51:56.606Z,90.67
2022-09-28T02:54:53.956Z,91.58
2022-09-28T02:57:38.949Z,90.35
2022-09-28T03:00:15.199Z,91.81
2022-09-28T03:03:01.485Z,92.60
2022-09-28T03:05:41.846Z,92.85
2022-09-28T03:08:23.726Z,92.94
2022-09-28T03:11:01.156Z,91.76
2022-09-28T03:13:34.766Z,91.16
2022-09-28T03:16:15.001Z,92.83
2022-09-28T03:18:50.229Z,93.02
2022-09-28T03:21:21.818Z,92.56
2022-09-28T03:23:53.824Z,92.82
2022-09-28T03:26:40.877Z,92.80
2022-09-28T03:29:12.856Z,93.25
2022-09-28T03:31:44.625Z,94.45
2022-09-28T03:34:19.297Z,95.06
2022-09-28T03:36:50.881Z,94.63
2022-09-28T03:39:22.938Z,94.93
2022-09-28T03:41:54.548Z,95.37
2022-09-28T03:45:09.158Z,95.58
2022-09-28T03:47:40.908Z,95.89
2022-09-28T03:50:15.957Z,95.18
2022-09-28T03:52:47.576Z,94.56
2022-09-28T03:55:19.887Z,94.91
2022-09-28T03:57:57.097Z,94.75
2022-09-28T04:00:29.078Z,95.62
2022-09-28T04:03:00.428Z,96.26
2022-09-28T04:05:34.958Z,97.01
2022-09-28T04:08:06.327Z,97.47
2022-09-28T04:10:38.076Z,97.45
2022-09-28T04:13:09.497Z,96.90
2022-09-28T04:15:41.386Z,97.08
2022-09-28T04:18:13.789Z,97.66
2022-09-28T04:20:48.407Z,97.61
2022-09-28T04:23:20.517Z,97.76
2022-09-28T04:25:55.124Z,97.75
2022-09-28T04:28:38.709Z,98.66
2022-09-28T04:31:13.357Z,98.23
2022-09-28T04:33:44.668Z,98.82
2022-09-28T04:36:43.078Z,98.47
2022-09-28T04:39:15.027Z,98.49
2022-09-28T04:41:47.101Z,98.04
2022-09-28T04:44:18.695Z,98.10
2022-09-28T04:46:50.349Z,97.41
2022-09-28T04:49:22.068Z,97.68
2022-09-28T04:51:56.136Z,97.65
2022-09-28T04:54:27.798Z,96.81
2022-09-28T04:56:59.227Z,97.23
2022-09-28T04:59:30.920Z,97.17
2022-09-28T05:02:02.429Z,97.28
2022-09-28T05:04:34.188Z,97.04
2022-09-28T05:07:08.188Z,96.99
2022-09-28T05:09:39.879Z,96.09
2022-09-28T05:12:12.620Z,96.53
2022-09-28T05:14:44.408Z,96.76
2022-09-28T05:17:15.868Z,96.45
2022-09-28T05:19:47.707Z,95.92
2022-09-28T05:22:21.847Z,95.98
2022-09-28T05:24:55.168Z,95.62
2022-09-28T05:27:27.267Z,95.32
2022-09-28T05:29:59.488Z,96.07
2022-09-28T05:32:30.988Z,95.71
2022-09-28T05:35:06.117Z,95.75
2022-09-28T05:37:41.412Z,94.93
2022-09-28T05:40:15.101Z,95.55
2022-09-28T05:42:47.088Z,94.86
2022-09-28T05:45:19.067Z,94.68
2022-09-28T05:47:50.727Z,94.20
2022-09-28T05:50:22.587Z,94.34
2022-09-28T05:53:04.587Z,94.51
2022-09-28T05:55:36.508Z,94.49
2022-09-28T05:58:10.469Z,94.42
2022-09-28T06:00:42.586Z,93.78
2022-09-28T06:03:17.076Z,94.45
2022-09-28T06:05:49.229Z,94.94
2022-09-28T06:08:24.246Z,95.16
2022-09-28T06:10:56.387Z,94.82
2022-09-28T06:13:28.288Z,94.48
2022-09-28T06:16:00.348Z,92.97
2022-09-28T06:18:32.206Z,91.56
2022-09-28T06:21:06.107Z,91.52
2022-09-28T06:23:42.713Z,90.01
2022-09-28T06:26:16.728Z,88.92
2022-09-28T06:28:48.588Z,87.94
2022-09-28T06:31:23.954Z,88.52
2022-09-28T06:33:56.208Z,87.57
2022-09-28T06:36:28.268Z,88.00
2022-09-28T06:39:02.888Z,87.40
2022-09-28T06:41:35.116Z,88.88
2022-09-28T06:44:07.066Z,87.25
2022-09-28T06:46:39.524Z,87.10
2022-09-28T06:49:14.206Z,87.29
2022-09-28T06:51:50.070Z,89.59
2022-09-28T06:54:26.346Z,87.42
2022-09-28T06:56:59.344Z,86.93
2022-09-28T06:59:32.425Z,85.82
2022-09-28T07:02:05.266Z,86.91
2022-09-28T07:04:37.547Z,87.71
2022-09-28T07:07:11.506Z,86.25
2022-09-28T07:09:50.248Z,85.06
2022-09-28T07:12:26.589Z,85.64
2022-09-28T07:14:59.386Z,86.05
2022-09-28T07:17:32.477Z,87.04
2022-09-28T07:20:16.291Z,84.44
2022-09-28T07:22:50.944Z,84.65
2022-09-28T07:25:26.905Z,83.70
2022-09-28T07:28:00.386Z,85.21
2022-09-28T07:30:34.508Z,85.59
2022-09-28T07:33:08.825Z,86.67
2022-09-28T07:35:42.303Z,86.85
2022-09-28T07:38:14.826Z,82.52
2022-09-28T07:41:02.236Z,81.80
2022-09-28T07:43:35.646Z,80.07
2022-09-28T07:46:12.672Z,80.00
2022-09-28T07:48:46.278Z,78.98
2022-09-28T07:51:20.131Z,80.92
2022-09-28T07:53:54.457Z,82.12
2022-09-28T07:56:29.839Z,80.88
2022-09-28T07:59:02.472Z,77.92
2022-09-28T08:01:34.827Z,76.67
2022-09-28T08:04:07.473Z,76.09
2022-09-28T08:06:40.832Z,76.62
2022-09-28T08:09:26.352Z,73.68
2022-09-28T08:12:19.991Z,73.84
2022-09-28T08:14:52.993Z,73.23
2022-09-28T08:17:25.397Z,74.65
2022-09-28T08:20:10.207Z,74.69
2022-09-28T08:22:42.924Z,76.76
2022-09-28T08:25:15.512Z,71.42
2022-09-28T08:27:50.592Z,71.24
2022-09-28T08:30:23.517Z,67.14
2022-09-28T08:32:55.954Z,63.78
2022-09-28T08:35:28.596Z,61.50
2022-09-28T08:38:03.797Z,60.78
2022-09-28T08:40:41.327Z,60.35
2022-09-28T08:43:28.550Z,60.62
2022-09-28T08:46:03.597Z,61.38
2022-09-28T08:49:13.554Z,60.90
2022-09-28T08:51:52.511Z,63.04
2022-09-28T08:54:40.643Z,65.07
2022-09-28T08:57:18.113Z,63.44
2022-09-28T08:59:56.073Z,66.35
2022-09-28T09:02:33.923Z,68.50
2022-09-28T09:05:09.216Z,61.76
2022-09-28T09:08:03.723Z,63.81
2022-09-28T09:10:50.995Z,69.53
2022-09-28T09:14:03.429Z,62.39
2022-09-28T09:17:00.255Z,59.28
2022-09-28T09:19:42.561Z,53.87
2022-09-28T09:22:20.722Z,54.65
2022-09-28T09:24:55.363Z,49.39
2022-09-28T09:27:48.609Z,55.09
2022-09-28T09:30:26.657Z,48.00
2022-09-28T09:33:35.147Z,50.25
2022-09-28T09:36:22.231Z,50.26
2022-09-28T09:39:06.992Z,47.93
2022-09-28T09:41:53.993Z,48.76
2022-09-28T09:44:50.839Z,50.28
2022-09-28T09:47:26.871Z,53.54
2022-09-28T09:50:10.678Z,51.79
2022-09-28T09:52:52.750Z,56.52
2022-09-28T09:55:32.956Z,49.63
2022-09-28T09:58:12.711Z,57.64
2022-09-28T10:00:48.232Z,56.09
2022-09-28T10:03:27.984Z,51.98
2022-09-28T10:06:06.761Z,53.60
2022-09-28T10:08:44.016Z,54.34
2022-09-28T10:11:20.376Z,47.81
2022-09-28T10:13:52.695Z,45.30
2022-09-28T10:16:24.800Z,45.87
2022-09-28T10:18:57.054Z,45.83
2022-09-28T10:21:37.814Z,45.66
2022-09-28T10:24:18.574Z,49.40
2022-09-28T10:26:54.335Z,45.86
2022-09-28T10:29:29.253Z,46.94
2022-09-28T10:32:01.415Z,50.02
2022-09-28T10:34:34.057Z,48.91
2022-09-28T10:37:13.097Z,45.94
2022-09-28T10:39:50.897Z,47.84
2022-09-28T10:42:26.099Z,45.35
2022-09-28T10:45:02.459Z,45.39
2022-09-28T10:47:35.935Z,45.41
2022-09-28T10:50:23.383Z,45.89
2022-09-28T10:53:13.816Z,47.06
2022-09-28T10:55:59.578Z,49.38
2022-09-28T10:58:40.854Z,51.19
2022-09-28T11:01:15.525Z,51.75
2022-09-28T11:03:55.941Z,55.47
2022-09-28T11:06:30.737Z,52.71
2022-09-28T11:09:07.939Z,53.07
2022-09-28T11:11:45.339Z,53.19
2022-09-28T11:14:29.824Z,56.78
2022-09-28T11:17:21.258Z,56.25
2022-09-28T11:19:54.142Z,53.20
2022-09-28T11:22:29.337Z,53.81
2022-09-28T11:25:25.347Z,56.59
2022-09-28T11:28:04.874Z,57.05
2022-09-28T11:30:41.600Z,58.60
2022-09-28T11:33:20.439Z,62.19
2022-09-28T11:36:00.972Z,64.57
2022-09-28T11:38:43.399Z,65.56
2022-09-28T11:41:37.398Z,63.27
2022-09-28T11:44:39.965Z,65.32
2022-09-28T11:47:24.454Z,68.13
2022-09-28T11:50:04.953Z,69.57
2022-09-28T11:52:44.653Z,66.84
2022-09-28T11:55:26.336Z,68.62
2022-09-28T11:58:09.736Z,69.30
2022-09-28T12:00:48.977Z,66.90
2022-09-28T12:03:26.752Z,68.56
2022-09-28T12:06:03.454Z,66.59
2022-09-28T12:08:39.898Z,64.09
2022-09-28T12:11:18.936Z,64.29
2022-09-28T12:13:56.530Z,62.98
2022-09-28T12:17:00.964Z,65.33
2022-09-28T12:19:31.148Z,64.79
2022-09-28T12:22:08.878Z,62.00
2022-09-28T12:24:45.680Z,66.65
2022-09-28T12:27:26.514Z,64.77
2022-09-28T12:30:06.754Z,66.48
2022-09-28T12:32:45.966Z,64.26
2022-09-28T12:35:22.628Z,66.28
2022-09-28T12:38:09.186Z,64.61
2022-09-28T12:40:48.725Z,66.62
2022-09-28T12:44:02.476Z,68.94
2022-09-28T12:46:54.161Z,65.92
2022-09-28T12:53:02.955Z,65.81
2022-09-28T12:55:51.505Z,66.72
2022-09-28T12:58:48.623Z,60.33
2022-09-28T13:01:39.084Z,62.98
2022-09-28T13:04:49.599Z,61.68
2022-09-28T13:07:29.904Z,59.81
2022-09-28T13:10:14.388Z,56.81
2022-09-28T13:13:00.387Z,60.63
2022-09-28T13:15:44.277Z,56.43
2022-09-28T13:18:23.662Z,59.43
2022-09-28T13:21:08.921Z,57.14
2022-09-28T13:23:46.121Z,56.86
2022-09-28T13:26:28.434Z,53.99
2022-09-28T13:29:05.957Z,54.42
2022-09-28T13:31:41.714Z,55.10
2022-09-28T13:34:20.834Z,53.88
2022-09-28T13:37:24.471Z,54.15
2022-09-28T13:39:57.911Z,53.88
2022-09-28T13:42:54.033Z,55.22
2022-09-28T13:45:49.707Z,53.25
2022-09-28T13:48:25.230Z,55.49
2022-09-28T13:51:23.072Z,54.59
2022-09-28T13:54:19.894Z,52.34
2022-09-28T13:57:01.833Z,52.98
2022-09-28T13:59:43.614Z,55.41
2022-09-28T14:02:29.635Z,56.86
2022-09-28T14:05:07.251Z,59.51
2022-09-28T14:08:01.764Z,59.30
2022-09-28T14:10:55.017Z,59.51
2022-09-28T14:13:57.113Z,55.69
2022-09-28T14:16:31.410Z,54.33
2022-09-28T14:19:10.282Z,53.77
2022-09-28T14:22:12.823Z,53.78
2022-09-28T14:25:09.146Z,55.83
2022-09-28T14:28:02.203Z,57.23
2022-09-28T14:30:50.833Z,60.64
2022-09-28T14:33:30.822Z,58.91
2022-09-28T14:36:06.118Z,59.24
2022-09-28T14:38:53.492Z,58.19
2022-09-28T14:41:35.425Z,55.61
2022-09-28T14:44:12.586Z,57.60
2022-09-28T14:46:46.815Z,60.30
2022-09-28T14:49:54.442Z,58.42
2022-09-28T14:52:43.106Z,59.73
2022-09-28T14:55:24.033Z,61.85
2022-09-28T14:58:00.078Z,59.50
2022-09-28T15:00:35.518Z,59.92
2022-09-28T15:03:12.267Z,59.54
2022-09-28T15:05:47.611Z,60.01
2022-09-28T15:08:23.047Z,61.10
2022-09-28T15:10:55.669Z,60.54
2022-09-28T15:13:30.720Z,63.95
2022-09-28T15:16:11.811Z,61.50
2022-09-28T15:19:18.732Z,60.19
2022-09-28T15:21:51.441Z,61.97
2022-09-28T15:24:34.710Z,62.01
2022-09-28T15:27:19.306Z,62.35
2022-09-28T15:30:01.675Z,63.75
2022-09-28T15:32:37.272Z,63.51
2022-09-28T15:35:17.420Z,64.29
2022-09-28T15:37:50.609Z,63.48
2022-09-28T15:40:28.612Z,65.54
2022-09-28T15:43:01.018Z,64.22
2022-09-28T15:45:36.999Z,63.70
2022-09-28T15:48:32.360Z,64.57
2022-09-28T15:51:11.245Z,65.78
2022-09-28T15:53:47.261Z,65.50
2022-09-28T15:56:19.504Z,67.45
2022-09-28T15:59:13.601Z,67.88
2022-09-28T16:01:47.492Z,68.46
2022-09-28T16:04:52.360Z,67.53
2022-09-28T16:07:27.896Z,69.75
2022-09-28T16:10:03.631Z,69.53
2022-09-28T16:12:48.439Z,71.19
2022-09-28T16:15:24.349Z,72.98
2022-09-28T16:18:00.840Z,71.92
2022-09-28T16:20:38.133Z,73.90
2022-09-28T16:23:21.033Z,74.04
2022-09-28T16:25:55.854Z,75.41
2022-09-28T16:28:34.177Z,76.02
2022-09-28T16:31:08.775Z,75.00
2022-09-28T16:33:46.875Z,76.77
2022-09-28T16:36:21.422Z,75.92
2022-09-28T16:38:54.548Z,76.88
2022-09-28T16:41:29.672Z,77.63
2022-09-28T16:44:04.248Z,79.37
2022-09-28T16:46:39.851Z,79.06
2022-09-28T16:49:18.912Z,80.48
2022-09-28T16:51:53.443Z,79.63
2022-09-28T16:54:39.504Z,79.53
2022-09-28T16:57:14.437Z,80.56
2022-09-28T16:59:46.296Z,81.21
2022-09-28T17:02:45.068Z,81.98
2022-09-28T17:05:14.154Z,82.22
2022-09-28T17:07:50.290Z,81.37
2022-09-28T17:10:27.347Z,81.51
2022-09-28T17:12:59.468Z,82.64
2022-09-28T17:15:32.106Z,83.81
2022-09-28T17:18:04.387Z,82.83
2022-09-28T17:20:39.168Z,82.71
2022-09-28T17:23:13.627Z,82.98
2022-09-28T17:25:46.389Z,84.02
2022-09-28T17:28:23.187Z,85.42
2022-09-28T17:30:56.180Z,85.99
2022-09-28T17:33:28.558Z,84.85
2022-09-28T17:36:05.298Z,83.95
2022-09-28T17:38:42.596Z,86.25
2022-09-28T17:41:20.223Z,86.15
2022-09-28T17:43:53.179Z,86.27
2022-09-28T17:46:32.274Z,86.81
2022-09-28T17:49:05.859Z,85.74
2022-09-28T17:51:41.764Z,84.75
2022-09-28T17:54:20.779Z,86.28
2022-09-28T17:56:53.534Z,87.71
2022-09-28T17:59:27.093Z,87.01
2022-09-28T18:02:02.378Z,88.53
2022-09-28T18:04:51.296Z,87.69
2022-09-28T18:07:25.213Z,88.02
2022-09-28T18:10:08.411Z,85.71
2022-09-28T18:12:41.013Z,84.70
2022-09-28T18:15:14.092Z,83.64
2022-09-28T18:17:46.772Z,86.06
2022-09-28T18:20:18.810Z,85.93
2022-09-28T18:22:52.935Z,84.77
2022-09-28T18:25:28.133Z,84.91
2022-09-28T18:28:01.646Z,83.87
2022-09-28T18:30:34.270Z,84.33
2022-09-28T18:33:06.877Z,83.49
2022-09-28T18:35:39.558Z,83.85
2022-09-28T18:38:12.115Z,84.56
2022-09-28T18:40:48.605Z,84.63
2022-09-28T18:43:21.055Z,85.19
2022-09-28T18:45:54.478Z,84.84
2022-09-28T18:48:28.215Z,85.27
2022-09-28T18:51:00.136Z,85.70
2022-09-28T18:53:35.083Z,86.00
2022-09-28T18:56:13.333Z,86.14
2022-09-28T18:58:46.654Z,85.98
2022-09-28T19:01:36.553Z,85.88
2022-09-28T19:04:11.193Z,86.26
2022-09-28T19:06:44.877Z,86.38
2022-09-28T19:09:17.431Z,86.62
2022-09-28T19:11:53.112Z,86.39
2022-09-28T19:14:25.396Z,86.19
2022-09-28T19:16:57.398Z,86.31
2022-09-28T19:19:30.037Z,86.77
2022-09-28T19:22:02.171Z,87.18
2022-09-28T19:24:34.559Z,86.95
2022-09-28T19:27:09.237Z,87.89
2022-09-28T19:29:54.097Z,87.75
2022-09-28T19:32:26.036Z,87.79
2022-09-28T19:34:58.219Z,88.65
2022-09-28T19:37:30.377Z,88.49
2022-09-28T19:40:02.484Z,88.71
2022-09-28T19:42:37.878Z,88.92
2022-09-28T19:45:11.137Z,88.33
2022-09-28T19:47:42.937Z,88.46
2022-09-28T19:50:14.882Z,87.98
2022-09-28T19:52:46.998Z,87.98
2022-09-28T19:55:21.660Z,87.79
2022-09-28T19:57:56.657Z,88.50
2022-09-28T20:00:28.685Z,88.12
2022-09-28T20:03:01.874Z,88.47
2022-09-28T20:05:34.377Z,88.25
2022-09-28T20:08:06.216Z,88.58
2022-09-28T20:10:38.555Z,89.14
2022-09-28T20:13:13.674Z,89.08
2022-09-28T20:15:45.764Z,89.06
2022-09-28T20:18:18.763Z,89.04
2022-09-28T20:20:50.945Z,90.10
2022-09-28T20:23:22.614Z,89.51
2022-09-28T20:25:56.436Z,89.80
2022-09-28T20:28:31.127Z,90.23
2022-09-28T20:31:06.036Z,90.39
2022-09-28T20:33:39.775Z,90.48
2022-09-28T20:36:14.577Z,90.29
2022-09-28T20:38:49.875Z,90.54
2022-09-28T20:41:24.677Z,91.22
2022-09-28T20:44:04.261Z,91.46
2022-09-28T20:46:39.125Z,91.35
2022-09-28T20:49:11.196Z,91.57
2022-09-28T20:51:43.156Z,91.80
2022-09-28T20:54:38.179Z,92.32
2022-09-28T20:57:17.798Z,92.67
2022-09-28T20:59:54.890Z,93.16
2022-09-28T21:02:28.241Z,92.47
2022-09-28T21:05:01.087Z,92.52
2022-09-28T21:07:33.426Z,92.84
2022-09-28T21:10:31.192Z,93.73
2022-09-28T21:13:03.511Z,92.98
2022-09-28T21:15:39.047Z,92.65
2022-09-28T21:18:11.467Z,92.85
2022-09-28T21:20:49.387Z,92.60
2022-09-28T21:23:25.109Z,92.42
2022-09-28T21:26:05.532Z,92.49
2022-09-28T21:28:39.402Z,92.18
2022-09-28T21:31:15.509Z,92.02
2022-09-28T21:33:48.042Z,92.57
2022-09-28T21:36:20.760Z,92.16
2022-09-28T21:38:53.859Z,91.91
2022-09-28T21:41:26.419Z,92.92
2022-09-28T21:43:58.828Z,92.17
2022-09-28T21:46:34.588Z,92.35
2022-09-28T21:49:11.919Z,93.05
2022-09-28T21:51:47.502Z,91.89
2022-09-28T21:54:19.943Z,94.31
2022-09-28T21:56:52.898Z,92.77
2022-09-28T21:59:25.421Z,92.84
2022-09-28T22:02:00.270Z,91.99
2022-09-28T22:04:32.930Z,92.53
2022-09-28T22:07:05.226Z,91.64
2022-09-28T22:09:37.585Z,92.18
2022-09-28T22:12:09.807Z,90.69
2022-09-28T22:14:42.086Z,92.02
2022-09-28T22:17:17.147Z,90.98
2022-09-28T22:19:49.426Z,92.90
2022-09-28T22:22:21.586Z,91.91
2022-09-28T22:24:55.348Z,90.78
2022-09-28T22:27:27.425Z,92.36
2022-09-28T22:29:59.588Z,91.14
2022-09-28T22:32:34.228Z,91.64
2022-09-28T22:35:06.688Z,91.66
2022-09-28T22:37:38.346Z,91.64
2022-09-28T22:40:13.045Z,91.49
2022-09-28T22:42:44.986Z,91.57
2022-09-28T22:45:17.307Z,91.75
2022-09-28T22:47:51.947Z,91.04
2022-09-28T22:50:24.208Z,91.06
2022-09-28T22:52:56.625Z,91.94
2022-09-28T22:55:28.426Z,91.04
2022-09-28T22:58:00.325Z,91.17
2022-09-28T23:00:32.427Z,90.84
2022-09-28T23:03:07.592Z,91.10
2022-09-28T23:05:39.887Z,90.79
2022-09-28T23:08:11.510Z,91.19
2022-09-28T23:10:45.026Z,91.08
2022-09-28T23:13:16.965Z,91.42
2022-09-28T23:15:59.014Z,91.98
2022-09-28T23:18:36.411Z,91.88
2022-09-28T23:21:10.527Z,91.88
2022-09-28T23:23:42.407Z,92.18
2022-09-28T23:26:15.867Z,92.35
2022-09-28T23:28:48.706Z,92.09
2022-09-28T23:31:23.323Z,92.49
2022-09-28T23:34:00.627Z,92.88
2022-09-28T23:36:33.117Z,92.58
2022-09-28T23:39:05.067Z,92.32
2022-09-28T23:41:37.333Z,92.58
2022-09-28T23:44:09.026Z,92.70
2022-09-28T23:46:41.497Z,92.73
2022-09-28T23:49:16.126Z,93.13
2022-09-28T23:51:48.326Z,93.06
2022-09-28T23:54:20.286Z,93.23
2022-09-28T23:56:52.427Z,93.40
2022-09-28T23:59:24.165Z,93.36
